Time;durP1;ratioP1;P1;durP2;ratioP2;P2;SDS_P1;SDS_P2;PMS_P1;PMS_P2;Temp;Humidity;BMP_temperature;BMP_pressure;BME280_temperature;BME280_humidity;BME280_pressure;Samples;Min_cycle;Max_cycle;Signal;HPM_P1;HPM_P2
2022/07/01 00:01:44;;;;;;;4.28;1.38;;;16.70;84.50;;;;;;5035323;28;20079;-75
2022/07/01 00:04:10;;;;;;;3.90;1.60;;;16.80;84.70;;;;;;5035065;28;20060;-76
2022/07/01 00:06:37;;;;;;;2.97;1.70;;;16.80;84.70;;;;;;5037690;28;20435;-76
2022/07/01 00:09:04;;;;;;;1.52;1.20;;;16.80;84.20;;;;;;5035467;28;20359;-76
2022/07/01 00:11:30;;;;;;;1.80;1.10;;;16.80;84.10;;;;;;5035173;28;20490;-76
2022/07/01 00:13:56;;;;;;;4.20;1.05;;;16.80;83.60;;;;;;5035142;28;20037;-76
2022/07/01 00:16:22;;;;;;;1.48;0.90;;;16.80;83.60;;;;;;5034954;28;20373;-76
2022/07/01 00:18:47;;;;;;;1.58;0.80;;;16.90;84.10;;;;;;5034908;28;20030;-76
2022/07/01 00:21:14;;;;;;;1.40;0.90;;;17.00;83.70;;;;;;5034986;28;20025;-76
2022/07/01 00:23:40;;;;;;;1.17;0.85;;;17.00;83.20;;;;;;5035014;28;20018;-76
2022/07/01 00:26:05;;;;;;;2.38;0.88;;;17.10;82.70;;;;;;5034978;28;20048;-76
2022/07/01 00:28:31;;;;;;;1.95;0.90;;;17.10;81.80;;;;;;5034828;28;20077;-76
2022/07/01 00:30:56;;;;;;;3.15;1.58;;;17.20;81.80;;;;;;5034939;28;20382;-75
2022/07/01 00:33:22;;;;;;;1.40;0.68;;;17.20;81.80;;;;;;5034713;28;20026;-75
2022/07/01 00:35:47;;;;;;;1.17;0.60;;;17.20;81.20;;;;;;5034648;28;20017;-75
2022/07/01 00:38:13;;;;;;;2.35;0.80;;;17.20;81.30;;;;;;5034840;28;20021;-76
2022/07/01 00:40:38;;;;;;;3.90;0.82;;;17.30;81.00;;;;;;5034639;28;20025;-76
2022/07/01 00:43:05;;;;;;;2.17;0.70;;;17.30;79.80;;;;;;5034507;28;20040;-76
2022/07/01 00:45:30;;;;;;;1.25;0.50;;;17.20;79.40;;;;;;5034468;28;20026;-75
2022/07/01 00:47:56;;;;;;;4.60;0.60;;;17.20;79.90;;;;;;5034135;28;20042;-76
2022/07/01 00:50:23;;;;;;;2.08;0.60;;;17.20;79.10;;;;;;5033808;28;20041;-75
2022/07/01 00:52:48;;;;;;;2.20;0.57;;;17.20;79.10;;;;;;5034523;28;20508;-76
2022/07/01 00:55:15;;;;;;;1.67;0.65;;;17.10;79.50;;;;;;5034535;28;20029;-75
2022/07/01 00:57:42;;;;;;;0.60;0.50;;;17.20;79.40;;;;;;5034481;28;20022;-76
2022/07/01 01:00:23;;;;;;;2.40;0.70;;;17.20;78.90;;;;;;5034487;28;20100;-75
2022/07/01 01:02:49;;;;;;;1.88;0.63;;;17.20;78.90;;;;;;5034443;28;20017;-75
2022/07/01 01:05:14;;;;;;;0.88;0.50;;;17.20;78.80;;;;;;5034339;28;20388;-75
2022/07/01 01:07:40;;;;;;;0.90;0.52;;;17.20;78.20;;;;;;5034174;28;20037;-75
2022/07/01 01:10:06;;;;;;;1.95;0.55;;;17.20;78.00;;;;;;5034213;28;20026;-76
2022/07/01 01:12:33;;;;;;;1.67;0.80;;;17.20;78.10;;;;;;5034249;28;20033;-75
2022/07/01 01:14:59;;;;;;;1.58;0.60;;;17.10;78.10;;;;;;5034093;28;20068;-75
2022/07/01 01:17:24;;;;;;;2.22;0.50;;;17.00;77.80;;;;;;5034085;28;20033;-75
2022/07/01 01:19:51;;;;;;;2.05;0.60;;;16.90;78.00;;;;;;5034036;28;20025;-75
2022/07/01 01:22:18;;;;;;;3.60;0.70;;;16.80;77.80;;;;;;5033898;28;20149;-76
2022/07/01 01:24:45;;;;;;;1.25;0.47;;;16.70;78.30;;;;;;5033917;28;20021;-75
2022/07/01 01:27:11;;;;;;;2.47;0.55;;;16.60;78.50;;;;;;5015929;28;20426;-75
2022/07/01 01:29:38;;;;;;;1.85;0.57;;;16.50;79.10;;;;;;5033860;28;20032;-76
2022/07/01 01:32:05;;;;;;;2.33;0.80;;;16.60;79.40;;;;;;5033783;28;20362;-76
2022/07/01 01:34:38;;;;;;;1.00;0.60;;;16.50;79.70;;;;;;5033640;28;20455;-75
2022/07/01 01:37:06;;;;;;;2.92;0.52;;;16.60;79.60;;;;;;5033764;28;20026;-75
2022/07/01 01:39:31;;;;;;;0.82;0.75;;;16.60;79.70;;;;;;5033532;28;20059;-75
2022/07/01 01:41:57;;;;;;;2.72;0.60;;;16.60;79.90;;;;;;5033657;28;20029;-75
2022/07/01 01:44:23;;;;;;;1.35;0.63;;;16.60;80.20;;;;;;5033478;28;20066;-75
2022/07/01 01:46:48;;;;;;;0.60;0.60;;;16.60;80.50;;;;;;5015633;28;20041;-75
2022/07/01 01:49:14;;;;;;;1.90;0.60;;;16.70;80.90;;;;;;5033389;28;20112;-74
2022/07/01 01:51:39;;;;;;;0.98;0.40;;;16.80;80.80;;;;;;5033198;28;20037;-75
2022/07/01 01:54:05;;;;;;;1.55;0.65;;;16.80;80.40;;;;;;5033423;28;20033;-75
2022/07/01 01:56:31;;;;;;;0.32;0.32;;;16.80;80.00;;;;;;5033171;28;20382;-75
2022/07/01 01:58:57;;;;;;;1.13;0.60;;;16.90;80.10;;;;;;5033198;28;20037;-75
2022/07/01 02:01:23;;;;;;;1.33;0.70;;;16.90;80.20;;;;;;5032337;28;20022;-75
2022/07/01 02:03:50;;;;;;;2.13;0.60;;;17.00;80.10;;;;;;5033299;28;20461;-75
2022/07/01 02:06:18;;;;;;;0.50;0.50;;;16.90;80.10;;;;;;5033272;28;20422;-75
2022/07/01 02:08:44;;;;;;;0.90;0.63;;;16.90;80.10;;;;;;5033081;28;20029;-74
2022/07/01 02:11:10;;;;;;;0.65;0.55;;;16.90;80.00;;;;;;5033120;28;20520;-75
2022/07/01 02:13:36;;;;;;;1.70;0.70;;;16.90;79.90;;;;;;5033165;28;20025;-75
2022/07/01 02:16:03;;;;;;;1.25;0.80;;;16.70;80.70;;;;;;5033093;28;20092;-75
2022/07/01 02:18:28;;;;;;;0.68;0.68;;;16.70;80.70;;;;;;5032915;28;20021;-75
2022/07/01 02:20:54;;;;;;;2.13;0.63;;;16.70;80.00;;;;;;5032961;28;20072;-75
2022/07/01 02:23:20;;;;;;;1.52;0.73;;;16.80;79.60;;;;;;5032976;28;20493;-76
2022/07/01 02:25:46;;;;;;;0.75;0.40;;;16.80;80.50;;;;;;5033155;28;20029;-75
2022/07/01 02:28:12;;;;;;;1.88;0.70;;;16.80;80.90;;;;;;5032868;28;20072;-75
2022/07/01 02:30:38;;;;;;;0.82;0.68;;;16.80;81.00;;;;;;5015247;28;20022;-75
2022/07/01 02:33:05;;;;;;;1.15;0.60;;;16.80;80.90;;;;;;5032894;28;20074;-75
2022/07/01 02:35:39;;;;;;;3.85;0.88;;;16.60;81.60;;;;;;5032613;28;20021;-75
2022/07/01 02:38:05;;;;;;;2.00;1.00;;;16.30;83.00;;;;;;5032780;28;20517;-74
2022/07/01 02:40:31;;;;;;;5.18;1.10;;;16.10;84.30;;;;;;5032888;28;20078;-74
2022/07/01 02:42:57;;;;;;;1.00;0.80;;;16.00;84.00;;;;;;5032723;28;20108;-74
2022/07/01 02:45:24;;;;;;;2.97;0.98;;;16.00;84.40;;;;;;5032613;28;20022;-75
2022/07/01 02:47:50;;;;;;;6.13;1.38;;;16.00;84.50;;;;;;5032480;28;20025;-75
2022/07/01 02:50:18;;;;;;;1.50;0.68;;;16.00;84.80;;;;;;5032462;28;20037;-75
2022/07/01 02:52:44;;;;;;;2.65;0.80;;;15.90;83.80;;;;;;5032683;28;20028;-76
2022/07/01 02:55:11;;;;;;;2.47;0.68;;;15.70;84.30;;;;;;5014818;28;20021;-76
2022/07/01 02:57:37;;;;;;;0.80;0.80;;;15.60;84.80;;;;;;5032377;28;20029;-75
2022/07/01 03:00:05;;;;;;;2.97;0.63;;;15.60;84.30;;;;;;5032478;28;20080;-76
2022/07/01 03:02:32;;;;;;;1.48;0.52;;;15.40;84.40;;;;;;5032497;28;20017;-75
2022/07/01 03:04:58;;;;;;;1.90;0.50;;;15.30;85.50;;;;;;5032561;28;20026;-75
2022/07/01 03:07:23;;;;;;;1.48;0.60;;;15.20;84.70;;;;;;5032514;28;20374;-75
2022/07/01 03:09:50;;;;;;;1.70;0.60;;;15.30;84.60;;;;;;5032674;28;20140;-76
2022/07/01 03:12:24;;;;;;;1.65;0.93;;;15.20;84.40;;;;;;5034278;28;20029;-75
2022/07/01 03:15:00;;;;;;;2.42;0.70;;;15.20;84.30;;;;;;5036658;28;20033;-76
2022/07/01 03:17:28;;;;;;;1.45;0.50;;;15.10;84.40;;;;;;5018862;28;20030;-75
2022/07/01 03:19:54;;;;;;;1.20;0.65;;;15.20;84.10;;;;;;5018608;28;20022;-76
2022/07/01 03:22:22;;;;;;;0.30;0.30;;;15.30;84.00;;;;;;5036414;28;20030;-75
2022/07/01 03:24:48;;;;;;;0.60;0.50;;;15.40;83.40;;;;;;5036389;28;20132;-75
2022/07/01 03:27:14;;;;;;;1.35;0.57;;;15.40;82.70;;;;;;5036129;28;20029;-75
2022/07/01 03:29:40;;;;;;;2.17;0.47;;;15.40;82.90;;;;;;5036354;28;20025;-75
2022/07/01 03:32:08;;;;;;;0.75;0.52;;;15.40;82.90;;;;;;5036033;28;20033;-75
2022/07/01 03:34:34;;;;;;;1.23;0.65;;;15.20;84.20;;;;;;5036014;28;20474;-75
2022/07/01 03:37:00;;;;;;;0.65;0.45;;;15.20;83.60;;;;;;5035903;28;20060;-75
2022/07/01 03:39:25;;;;;;;1.13;0.60;;;15.20;83.50;;;;;;5035936;28;20037;-75
2022/07/01 03:41:51;;;;;;;2.67;0.65;;;15.40;83.80;;;;;;5035765;28;20035;-75
2022/07/01 03:44:16;;;;;;;1.38;0.70;;;15.50;83.60;;;;;;5035704;28;20036;-75
2022/07/01 03:46:42;;;;;;;1.92;0.90;;;15.40;83.40;;;;;;5035554;28;20018;-75
2022/07/01 03:49:08;;;;;;;2.15;0.65;;;15.30;85.10;;;;;;5017751;28;20083;-76
2022/07/01 03:51:34;;;;;;;2.58;1.13;;;15.10;85.30;;;;;;5035381;28;20037;-76
2022/07/01 03:56:43;;;;;;;3.60;0.80;;;15.10;86.20;;;;;;5039548;28;20444;-75
2022/07/01 03:59:09;;;;;;;3.17;0.70;;;15.00;86.40;;;;;;5017864;28;20029;-75
2022/07/01 04:01:35;;;;;;;0.55;0.55;;;15.00;84.60;;;;;;5035654;28;20030;-76
2022/07/01 04:04:00;;;;;;;0.63;0.50;;;14.90;85.20;;;;;;5035287;28;20489;-76
2022/07/01 04:06:26;;;;;;;3.15;0.55;;;15.00;85.20;;;;;;5017596;28;20032;-76
2022/07/01 04:08:52;;;;;;;1.08;0.50;;;15.10;84.90;;;;;;5035235;28;20041;-76
2022/07/01 04:11:17;;;;;;;0.43;0.40;;;15.10;84.10;;;;;;5035208;28;20022;-76
2022/07/01 04:13:49;;;;;;;1.33;0.70;;;15.20;84.40;;;;;;5035137;28;20538;-75
2022/07/01 04:16:16;;;;;;;0.98;0.60;;;15.20;84.90;;;;;;5033895;28;20024;-76
2022/07/01 04:18:42;;;;;;;1.50;0.60;;;15.20;84.80;;;;;;5032897;28;20017;-75
2022/07/01 04:23:52;;;;;;;0.65;0.40;;;15.00;85.20;;;;;;5034122;28;20052;-75
2022/07/01 04:26:17;;;;;;;0.50;0.40;;;15.10;85.20;;;;;;5034928;28;20458;-75
2022/07/01 04:28:43;;;;;;;2.05;0.50;;;15.20;85.10;;;;;;5034526;28;20175;-76
2022/07/01 04:31:08;;;;;;;2.92;0.60;;;15.30;84.50;;;;;;5034731;28;20386;-76
2022/07/01 04:33:34;;;;;;;0.40;0.40;;;15.30;84.70;;;;;;5034439;28;20385;-75
2022/07/01 04:35:59;;;;;;;0.95;0.60;;;15.40;84.50;;;;;;5034526;28;20022;-75
2022/07/01 04:38:25;;;;;;;2.75;0.73;;;15.40;83.50;;;;;;5034597;28;20017;-75
2022/07/01 04:43:35;;;;;;;1.10;0.70;;;15.40;83.80;;;;;;5034560;28;20032;-74
2022/07/01 04:46:00;;;;;;;1.27;0.90;;;15.60;83.80;;;;;;5034513;28;20033;-74
2022/07/01 04:48:26;;;;;;;1.35;0.70;;;15.50;83.00;;;;;;5034058;28;20072;-74
2022/07/01 04:50:51;;;;;;;4.78;0.70;;;15.30;83.40;;;;;;5034290;28;20092;-74
2022/07/01 04:53:17;;;;;;;0.63;0.63;;;15.30;83.70;;;;;;5034369;28;20028;-74
2022/07/01 04:55:42;;;;;;;1.75;0.88;;;15.00;85.70;;;;;;5034397;28;20470;-74
2022/07/01 04:58:08;;;;;;;1.08;0.45;;;15.00;85.60;;;;;;5034325;28;20427;-74
2022/07/01 05:00:33;;;;;;;0.50;0.50;;;14.90;85.70;;;;;;5033977;28;20064;-75
2022/07/01 05:02:59;;;;;;;0.60;0.60;;;14.90;85.80;;;;;;5034359;28;20084;-76
2022/07/01 05:05:25;;;;;;;1.30;0.60;;;14.90;85.80;;;;;;5034108;28;20527;-76
2022/07/01 05:07:50;;;;;;;2.72;0.68;;;15.00;86.10;;;;;;5033885;28;20044;-76
2022/07/01 05:10:16;;;;;;;2.78;0.65;;;14.90;85.90;;;;;;5034072;28;20032;-76
2022/07/01 05:12:41;;;;;;;0.95;0.50;;;15.00;85.60;;;;;;5034132;28;20164;-76
2022/07/01 05:15:08;;;;;;;1.58;0.30;;;15.00;85.70;;;;;;5034037;28;20033;-75
2022/07/01 05:23:02;;;;;;;1.73;0.60;;;15.10;85.50;;;;;;5034026;28;20036;-76
2022/07/01 05:25:28;;;;;;;0.45;0.40;;;14.90;84.90;;;;;;5033568;28;20030;-75
2022/07/01 05:27:56;;;;;;;0.68;0.40;;;14.90;84.50;;;;;;5015702;28;20033;-76
2022/07/01 05:30:22;;;;;;;0.85;0.60;;;14.70;86.40;;;;;;5015390;28;20497;-76
2022/07/01 05:32:48;;;;;;;0.40;0.38;;;14.70;87.00;;;;;;5033022;28;20144;-76
2022/07/01 05:35:14;;;;;;;1.15;0.32;;;14.70;86.40;;;;;;5032987;28;20467;-76
2022/07/01 05:37:40;;;;;;;2.05;0.28;;;14.40;87.70;;;;;;5032897;28;20466;-76
2022/07/01 05:40:08;;;;;;;1.88;0.50;;;14.40;87.90;;;;;;5033344;28;20128;-75
2022/07/01 05:42:33;;;;;;;0.93;0.40;;;14.20;88.10;;;;;;5033346;28;20081;-75
2022/07/01 05:44:59;;;;;;;1.05;0.47;;;14.20;88.80;;;;;;5033010;28;20433;-76
2022/07/01 05:47:24;;;;;;;2.10;0.32;;;14.20;88.50;;;;;;5032577;28;20437;-76
2022/07/01 05:49:50;;;;;;;0.85;0.17;;;14.30;87.90;;;;;;5032704;28;20114;-76
2022/07/01 05:52:16;;;;;;;1.45;0.57;;;14.40;87.50;;;;;;5032892;28;20393;-76
2022/07/01 05:54:41;;;;;;;1.00;0.60;;;14.40;87.10;;;;;;5032791;28;20029;-76
2022/07/01 05:57:07;;;;;;;1.10;0.20;;;14.50;86.10;;;;;;5033187;28;20482;-76
2022/07/01 05:59:32;;;;;;;1.92;0.30;;;14.60;85.40;;;;;;5033002;28;20040;-77
2022/07/01 06:01:58;;;;;;;0.50;0.20;;;14.70;85.40;;;;;;5032816;28;20176;-77
2022/07/01 06:04:23;;;;;;;1.58;0.20;;;14.80;84.20;;;;;;5032519;28;20024;-76
2022/07/01 06:06:49;;;;;;;0.32;0.30;;;14.70;85.60;;;;;;5032297;28;20034;-77
2022/07/01 06:09:14;;;;;;;1.17;0.38;;;14.80;84.10;;;;;;5032511;28;20029;-76
2022/07/01 06:11:40;;;;;;;1.30;0.20;;;14.80;83.60;;;;;;5032083;28;20066;-75
2022/07/01 06:14:06;;;;;;;0.98;0.40;;;14.80;83.80;;;;;;5032233;28;20088;-77
2022/07/01 06:16:31;;;;;;;1.55;1.20;;;14.50;84.30;;;;;;5032386;28;20040;-77
2022/07/01 06:18:57;;;;;;;1.23;0.22;;;14.40;86.30;;;;;;5032372;28;20022;-74
2022/07/01 06:21:22;;;;;;;0.40;0.30;;;14.40;84.80;;;;;;5032582;28;20022;-75
2022/07/01 06:23:48;;;;;;;0.20;0.20;;;14.40;84.90;;;;;;5032639;28;20136;-77
2022/07/01 06:26:14;;;;;;;1.08;0.45;;;14.20;86.50;;;;;;5032574;28;20108;-75
2022/07/01 06:28:40;;;;;;;0.57;0.30;;;14.10;86.70;;;;;;5032311;28;20029;-75
2022/07/01 06:31:06;;;;;;;0.30;0.30;;;13.90;86.30;;;;;;5014618;28;20025;-75
2022/07/01 06:33:31;;;;;;;0.85;0.40;;;13.80;87.80;;;;;;5032480;28;20093;-75
2022/07/01 06:35:57;;;;;;;0.75;0.25;;;13.90;88.00;;;;;;5032333;28;20064;-74
2022/07/01 06:38:24;;;;;;;1.75;0.60;;;13.90;88.30;;;;;;5032157;28;20017;-75
2022/07/01 06:43:34;;;;;;;0.20;0.20;;;13.80;87.90;;;;;;5032398;28;20116;-76
2022/07/01 06:46:00;;;;;;;0.73;0.30;;;13.90;86.30;;;;;;5031802;28;20108;-75
2022/07/01 06:48:25;;;;;;;0.55;0.20;;;14.00;85.90;;;;;;5032135;28;20121;-75
2022/07/01 06:50:51;;;;;;;0.73;0.20;;;14.00;85.70;;;;;;5031881;28;20490;-76
2022/07/01 06:53:17;;;;;;;1.70;0.50;;;13.90;85.80;;;;;;5031966;28;20033;-75
2022/07/01 06:55:42;;;;;;;1.25;0.40;;;13.90;87.20;;;;;;5032306;28;20044;-74
2022/07/01 06:58:09;;;;;;;1.20;0.20;;;13.90;86.40;;;;;;5032234;28;20025;-76
2022/07/01 07:00:35;;;;;;;0.90;0.40;;;13.80;86.50;;;;;;5013897;28;20384;-75
2022/07/01 07:03:01;;;;;;;0.90;0.40;;;13.80;86.80;;;;;;5032165;28;20374;-76
2022/07/01 07:05:29;;;;;;;1.02;0.40;;;13.80;87.20;;;;;;5014258;28;20033;-76
2022/07/01 07:07:55;;;;;;;0.43;0.43;;;14.00;87.40;;;;;;5031586;28;20034;-75
2022/07/01 07:10:21;;;;;;;0.60;0.60;;;14.10;85.50;;;;;;5031880;28;20021;-75
2022/07/01 07:12:46;;;;;;;1.30;0.52;;;14.30;84.80;;;;;;5031820;28;20034;-76
2022/07/01 07:15:12;;;;;;;0.93;0.77;;;14.50;83.60;;;;;;5031548;28;20468;-76
2022/07/01 07:17:37;;;;;;;2.45;0.50;;;14.60;83.50;;;;;;5031674;28;20471;-75
2022/07/01 07:20:04;;;;;;;0.70;0.60;;;14.80;83.50;;;;;;5013616;28;20180;-75
2022/07/01 07:22:29;;;;;;;6.72;3.50;;;15.00;82.90;;;;;;5031982;28;20432;-76
2022/07/01 07:24:55;;;;;;;2.72;1.40;;;15.00;81.30;;;;;;5031227;28;20139;-75
2022/07/01 07:27:20;;;;;;;3.30;0.93;;;15.00;81.10;;;;;;5031446;28;20080;-75
2022/07/01 07:29:46;;;;;;;1.10;0.57;;;15.00;80.40;;;;;;5031208;28;20422;-75
2022/07/01 07:32:11;;;;;;;0.55;0.50;;;15.00;80.70;;;;;;5031448;28;20060;-76
2022/07/01 07:34:37;;;;;;;0.68;0.50;;;15.00;80.20;;;;;;5031621;28;20026;-75
2022/07/01 07:37:03;;;;;;;0.43;0.43;;;14.90;81.80;;;;;;5031661;28;20048;-76
2022/07/01 07:39:29;;;;;;;0.50;0.30;;;14.60;80.50;;;;;;5013787;28;20109;-75
2022/07/01 07:41:55;;;;;;;1.23;0.30;;;14.60;81.90;;;;;;5031300;28;20462;-76
2022/07/01 07:44:20;;;;;;;1.02;0.38;;;14.70;81.40;;;;;;5031278;28;20030;-75
2022/07/01 07:46:46;;;;;;;0.50;0.28;;;14.80;81.10;;;;;;5031476;28;20212;-76
2022/07/01 07:49:11;;;;;;;0.40;0.40;;;14.80;81.70;;;;;;5031485;28;20034;-75
2022/07/01 07:51:37;;;;;;;0.98;0.45;;;14.70;82.30;;;;;;5031641;28;20102;-75
2022/07/01 07:54:02;;;;;;;0.88;0.55;;;14.80;81.10;;;;;;5031408;28;20035;-75
2022/07/01 07:56:29;;;;;;;1.23;0.40;;;14.70;81.70;;;;;;5031332;28;20429;-81
2022/07/01 07:58:54;;;;;;;0.85;0.50;;;14.80;81.10;;;;;;5034723;28;20057;-76
2022/07/01 08:01:20;;;;;;;1.27;0.90;;;14.70;81.40;;;;;;5035276;28;20029;-74
2022/07/01 08:03:46;;;;;;;1.58;0.50;;;14.60;81.60;;;;;;5034947;28;20064;-75
2022/07/01 08:06:12;;;;;;;0.85;0.57;;;14.60;80.40;;;;;;5034781;28;20026;-78
2022/07/01 08:08:37;;;;;;;5.00;3.33;;;14.50;80.60;;;;;;5034995;28;20037;-75
2022/07/01 08:11:03;;;;;;;4.30;2.85;;;14.60;80.70;;;;;;5034784;28;20028;-74
2022/07/01 08:13:29;;;;;;;2.35;0.90;;;14.70;80.10;;;;;;5034724;28;20025;-74
2022/07/01 08:15:55;;;;;;;1.77;0.70;;;14.70;79.50;;;;;;5035246;28;20021;-75
2022/07/01 08:18:21;;;;;;;1.00;0.47;;;14.80;78.90;;;;;;5035016;28;20033;-75
2022/07/01 08:20:46;;;;;;;1.17;0.80;;;14.90;80.20;;;;;;5034719;28;20423;-74
2022/07/01 08:23:13;;;;;;;1.92;0.68;;;14.90;80.90;;;;;;5035015;28;20025;-74
2022/07/01 08:25:39;;;;;;;4.63;0.80;;;14.90;79.20;;;;;;5034596;28;20017;-74
2022/07/01 08:28:04;;;;;;;1.63;0.65;;;14.80;80.10;;;;;;5034471;28;20041;-74
2022/07/01 08:30:30;;;;;;;10.25;5.93;;;15.00;79.50;;;;;;5034173;28;20045;-76
2022/07/01 08:32:56;;;;;;;12.27;9.38;;;15.10;84.60;;;;;;5034451;28;20025;-75
2022/07/01 08:35:22;;;;;;;4.30;2.35;;;15.40;84.50;;;;;;5034318;28;20088;-75
2022/07/01 08:37:47;;;;;;;3.15;2.55;;;15.60;78.40;;;;;;5042355;28;20036;-75
2022/07/01 08:40:13;;;;;;;1.83;1.20;;;15.80;77.70;;;;;;5036037;28;20108;-75
2022/07/01 08:42:39;;;;;;;2.08;1.00;;;15.80;76.00;;;;;;5038906;28;20029;-76
2022/07/01 08:45:05;;;;;;;2.90;1.05;;;15.70;77.10;;;;;;5038537;28;20470;-76
2022/07/01 08:47:31;;;;;;;1.15;0.90;;;15.70;77.10;;;;;;5035895;28;20164;-76
2022/07/01 08:50:01;;;;;;;1.85;0.93;;;15.90;76.90;;;;;;5035933;28;20060;-76
2022/07/01 08:52:28;;;;;;;2.72;0.70;;;16.00;77.00;;;;;;5036883;28;20037;-76
2022/07/01 08:54:54;;;;;;;18.70;11.13;;;16.20;75.80;;;;;;5018212;28;20025;-77
2022/07/01 08:57:23;;;;;;;3.22;1.83;;;16.20;75.00;;;;;;5036801;28;20482;-77
2022/07/01 09:00:04;;;;;;;2.53;1.05;;;16.10;75.20;;;;;;5039032;28;20029;-77
2022/07/01 09:02:51;;;;;;;1.00;0.70;;;16.20;75.40;;;;;;5036375;28;20028;-77
2022/07/01 09:05:17;;;;;;;0.93;0.40;;;16.10;74.70;;;;;;5033936;28;20413;-77
2022/07/01 09:07:43;;;;;;;3.65;0.63;;;16.10;73.80;;;;;;5033062;28;20097;-76
2022/07/01 09:10:20;;;;;;;2.38;0.70;;;15.90;74.80;;;;;;5033200;28;20030;-77
2022/07/01 09:12:47;;;;;;;1.85;1.60;;;15.90;75.30;;;;;;5033375;28;20045;-76
2022/07/01 09:15:29;;;;;;;2.33;0.60;;;15.80;75.20;;;;;;5033167;28;20044;-77
2022/07/01 09:18:03;;;;;;;1.95;0.38;;;15.50;76.10;;;;;;5033331;28;20036;-76
2022/07/01 09:20:38;;;;;;;2.65;0.70;;;15.40;76.50;;;;;;5033405;28;20025;-77
2022/07/01 09:23:10;;;;;;;1.75;0.85;;;15.20;78.50;;;;;;5033363;28;20032;-76
2022/07/01 09:25:50;;;;;;;4.00;1.50;;;15.20;77.60;;;;;;5033422;28;20045;-76
2022/07/01 09:28:24;;;;;;;1.35;0.77;;;15.20;77.10;;;;;;5033114;28;20154;-76
2022/07/01 09:30:52;;;;;;;2.60;0.60;;;15.10;78.50;;;;;;5033415;28;20032;-76
2022/07/01 09:33:24;;;;;;;0.93;0.80;;;15.10;80.20;;;;;;5033589;28;20022;-76
2022/07/01 09:35:50;;;;;;;0.75;0.52;;;15.20;80.30;;;;;;5015632;28;20025;-76
2022/07/01 09:38:18;;;;;;;1.17;0.38;;;15.30;78.20;;;;;;5033407;28;20080;-76
2022/07/01 09:40:48;;;;;;;1.27;0.50;;;15.40;76.00;;;;;;5033307;28;20488;-76
2022/07/01 09:43:15;;;;;;;1.45;0.60;;;15.40;75.00;;;;;;5015361;28;20025;-76
2022/07/01 09:46:08;;;;;;;1.60;0.70;;;15.50;75.50;;;;;;5033124;28;20021;-76
2022/07/01 09:48:34;;;;;;;1.88;0.80;;;15.80;76.50;;;;;;5032938;28;20030;-77
2022/07/01 09:51:05;;;;;;;1.73;0.77;;;16.10;74.70;;;;;;5032804;28;20086;-76
2022/07/01 09:53:31;;;;;;;1.23;0.70;;;16.30;72.80;;;;;;5032931;28;20101;-77
2022/07/01 09:55:57;;;;;;;1.40;0.90;;;16.30;71.80;;;;;;5032987;28;20116;-77
2022/07/01 09:58:24;;;;;;;4.85;2.22;;;16.30;72.00;;;;;;5032920;28;20079;-76
2022/07/01 10:00:52;;;;;;;3.45;1.85;;;16.30;71.90;;;;;;5032948;28;20101;-77
2022/07/01 10:03:18;;;;;;;2.50;0.60;;;16.30;71.80;;;;;;5032567;28;20018;-77
2022/07/01 10:05:51;;;;;;;2.58;0.40;;;16.30;72.00;;;;;;5032515;28;20025;-76
2022/07/01 10:08:44;;;;;;;2.78;1.48;;;16.20;72.10;;;;;;5032940;28;20179;-76
2022/07/01 10:11:34;;;;;;;1.08;0.90;;;16.20;71.50;;;;;;5032420;28;20068;-77
2022/07/01 10:14:06;;;;;;;1.30;0.60;;;16.20;72.30;;;;;;5032287;28;20378;-77
2022/07/01 10:16:33;;;;;;;0.35;0.35;;;16.40;72.20;;;;;;5032466;28;20075;-77
2022/07/01 10:19:05;;;;;;;1.88;0.68;;;16.50;70.60;;;;;;5032037;28;20029;-77
2022/07/01 10:21:31;;;;;;;1.35;0.95;;;16.70;71.00;;;;;;5030764;28;20438;-76
2022/07/01 10:24:13;;;;;;;1.98;0.75;;;16.80;70.00;;;;;;5032302;28;20041;-76
2022/07/01 10:26:38;;;;;;;1.70;0.70;;;16.80;68.80;;;;;;5032547;28;20083;-76
2022/07/01 10:29:05;;;;;;;0.93;0.80;;;16.90;68.70;;;;;;5032499;28;20041;-76
2022/07/01 10:31:37;;;;;;;1.70;0.60;;;17.00;68.80;;;;;;5032424;28;20125;-76
2022/07/01 10:34:04;;;;;;;0.30;0.30;;;16.80;70.10;;;;;;5032477;28;20041;-76
2022/07/01 10:36:32;;;;;;;0.57;0.52;;;16.90;70.10;;;;;;5014588;28;20021;-76
2022/07/01 10:39:00;;;;;;;1.25;0.60;;;17.00;69.10;;;;;;5014160;28;20032;-77
2022/07/01 10:41:34;;;;;;;0.98;0.45;;;17.00;69.70;;;;;;5032061;28;20022;-77
2022/07/01 10:44:06;;;;;;;1.98;0.60;;;17.00;68.20;;;;;;5032161;28;20025;-76
2022/07/01 10:46:37;;;;;;;3.45;2.35;;;17.00;67.10;;;;;;5032245;28;20083;-74
2022/07/01 10:49:03;;;;;;;0.65;0.47;;;17.20;67.80;;;;;;5031971;28;20107;-73
2022/07/01 10:51:50;;;;;;;1.00;0.50;;;17.60;68.00;;;;;;5031770;28;20485;-76
2022/07/01 10:54:34;;;;;;;5.50;2.38;;;17.60;68.90;;;;;;5031911;28;20036;-76
2022/07/01 10:57:19;;;;;;;13.00;8.48;;;17.50;67.10;;;;;;5032020;28;20017;-77
2022/07/01 10:59:58;;;;;;;2.25;0.50;;;17.60;67.20;;;;;;5014355;28;20109;-76
2022/07/01 11:02:36;;;;;;;0.40;0.40;;;17.50;66.80;;;;;;5031753;28;20030;-77
2022/07/01 11:05:12;;;;;;;0.70;0.40;;;17.60;66.50;;;;;;5032141;28;20017;-77
2022/07/01 11:07:45;;;;;;;0.95;0.47;;;17.60;65.90;;;;;;5031954;28;20030;-77
2022/07/01 11:10:11;;;;;;;4.15;0.50;;;17.70;66.70;;;;;;5032517;28;20017;-77
2022/07/01 11:12:37;;;;;;;2.78;1.73;;;17.70;66.60;;;;;;5032129;28;20040;-76
2022/07/01 11:15:07;;;;;;;0.77;0.45;;;17.60;68.50;;;;;;5032347;28;20022;-77
2022/07/01 11:17:34;;;;;;;0.22;0.20;;;17.60;68.90;;;;;;5032283;28;20156;-77
2022/07/01 11:20:03;;;;;;;2.30;0.57;;;17.70;68.60;;;;;;5032249;28;20025;-77
2022/07/01 11:22:32;;;;;;;5.68;3.35;;;17.60;67.40;;;;;;5032076;28;20017;-76
2022/07/01 11:24:59;;;;;;;0.80;0.60;;;17.30;65.90;;;;;;5032155;28;20033;-75
2022/07/01 11:27:25;;;;;;;0.35;0.30;;;17.30;66.70;;;;;;5032147;28;20388;-76
2022/07/01 11:29:57;;;;;;;0.68;0.40;;;17.30;68.70;;;;;;5014041;28;20026;-76
2022/07/01 11:32:31;;;;;;;0.30;0.30;;;17.30;67.70;;;;;;5032112;28;20113;-76
2022/07/01 11:34:59;;;;;;;1.10;0.20;;;17.20;68.20;;;;;;5035721;28;20032;-76
2022/07/01 11:40:13;;;;;;;0.50;0.40;;;16.90;69.10;;;;;;5036154;28;20043;-76
2022/07/01 11:42:40;;;;;;;0.22;0.20;;;16.90;69.20;;;;;;5035486;28;20430;-76
2022/07/01 11:45:06;;;;;;;0.43;0.40;;;17.00;68.10;;;;;;5017982;28;20089;-76
2022/07/01 11:47:33;;;;;;;0.60;0.38;;;16.90;69.00;;;;;;5035385;28;20087;-76
2022/07/01 11:49:59;;;;;;;1.95;0.40;;;17.00;69.90;;;;;;5035450;28;20064;-76
2022/07/01 11:52:25;;;;;;;0.38;0.30;;;17.10;70.50;;;;;;5035395;28;20072;-76
2022/07/01 11:54:54;;;;;;;9.77;6.22;;;17.20;69.80;;;;;;5035547;28;20049;-76
2022/07/01 11:57:22;;;;;;;8.23;5.68;;;17.40;69.30;;;;;;5035455;28;20437;-75
2022/07/01 11:59:50;;;;;;;1.63;0.73;;;17.70;68.80;;;;;;5035212;28;20036;-76
2022/07/01 12:02:18;;;;;;;0.20;0.20;;;18.30;68.50;;;;;;5035198;28;20036;-75
2022/07/01 12:04:44;;;;;;;0.57;0.30;;;18.70;65.80;;;;;;5017468;28;20493;-76
2022/07/01 12:07:11;;;;;;;1.60;0.40;;;19.30;64.90;;;;;;5035141;28;20025;-76
2022/07/01 12:09:37;;;;;;;0.70;0.40;;;19.50;62.70;;;;;;5035288;28;20029;-77
2022/07/01 12:12:04;;;;;;;1.02;0.63;;;19.80;61.70;;;;;;5035306;28;20025;-76
2022/07/01 12:14:33;;;;;;;2.58;0.60;;;20.20;60.10;;;;;;5017274;28;20386;-76
2022/07/01 12:17:00;;;;;;;0.15;0.13;;;20.40;57.00;;;;;;5034963;28;20014;-76
2022/07/01 12:19:40;;;;;;;0.77;0.25;;;20.30;55.00;;;;;;5034895;28;20029;-76
2022/07/01 12:22:15;;;;;;;0.65;0.40;;;20.20;56.50;;;;;;5034863;28;20071;-76
2022/07/01 12:24:42;;;;;;;1.00;0.40;;;20.50;55.40;;;;;;5034788;28;20406;-76
2022/07/01 12:27:08;;;;;;;0.32;0.30;;;20.30;54.10;;;;;;5035770;28;20108;-76
2022/07/01 12:29:37;;;;;;;0.70;0.50;;;20.10;56.30;;;;;;5034942;28;20037;-76
2022/07/01 12:32:06;;;;;;;1.17;0.40;;;20.30;56.90;;;;;;5016850;28;20026;-76
2022/07/01 12:34:44;;;;;;;1.85;0.50;;;20.30;56.90;;;;;;5034653;28;20029;-76
2022/07/01 12:37:15;;;;;;;0.88;0.47;;;20.70;56.00;;;;;;5034716;28;20612;-76
2022/07/01 12:40:06;;;;;;;1.83;0.40;;;20.90;55.30;;;;;;5034713;28;20056;-76
2022/07/01 12:42:43;;;;;;;2.40;0.40;;;20.70;52.80;;;;;;5029202;28;20506;-75
2022/07/01 12:45:13;;;;;;;1.33;0.40;;;20.60;52.50;;;;;;5033425;28;20406;-76
2022/07/01 12:47:39;;;;;;;3.63;1.23;;;20.60;52.80;;;;;;5034366;28;20033;-75
2022/07/01 12:50:31;;;;;;;18.35;13.45;;;20.80;52.60;;;;;;5034043;28;20129;-77
2022/07/01 12:52:59;;;;;;;2.00;1.52;;;21.20;54.00;;;;;;5034389;28;20021;-75
2022/07/01 12:55:25;;;;;;;0.80;0.40;;;21.40;51.90;;;;;;5034368;28;20026;-76
2022/07/01 12:57:54;;;;;;;0.77;0.38;;;21.70;51.10;;;;;;5034337;28;20093;-76
2022/07/01 13:00:22;;;;;;;0.50;0.22;;;22.00;49.70;;;;;;5034241;28;20021;-76
2022/07/01 13:02:51;;;;;;;0.20;0.20;;;21.60;48.00;;;;;;5034140;28;20104;-76
2022/07/01 13:05:16;;;;;;;1.05;0.30;;;21.80;49.00;;;;;;5033865;28;20052;-76
2022/07/01 13:07:42;;;;;;;0.20;0.20;;;22.10;47.60;;;;;;5033830;28;20478;-76